Time;durP1;ratioP1;P1;durP2;ratioP2;P2;SDS_P1;SDS_P2;PMS_P1;PMS_P2;Temp;Humidity;BMP_temperature;BMP_pressure;BME280_temperature;BME280_humidity;BME280_pressure;Samples;Min_cycle;Max_cycle;Signal;HPM_P1;HPM_P2
2021/10/03 00:01:59;;;;;;;0.80;0.80;;;17.10;1.00;;;;;;4959058;28;20820;-68
2021/10/03 00:04:27;;;;;;;0.67;0.40;;;17.20;1.00;;;;;;4957450;28;20475;-69
2021/10/03 00:06:54;;;;;;;1.00;0.97;;;17.10;1.00;;;;;;4957315;29;20424;-67
2021/10/03 00:09:21;;;;;;;0.77;0.20;;;17.10;1.00;;;;;;4957074;28;20460;-69
2021/10/03 00:11:51;;;;;;;0.40;0.20;;;17.10;1.00;;;;;;4957162;28;20428;-67
2021/10/03 00:14:19;;;;;;;0.60;0.57;;;17.20;1.00;;;;;;4957445;28;20467;-68
2021/10/03 00:16:46;;;;;;;0.90;0.87;;;17.30;1.00;;;;;;4957630;28;20952;-69
2021/10/03 00:19:13;;;;;;;1.63;0.97;;;17.30;1.00;;;;;;4956981;28;20532;-66
2021/10/03 00:21:40;;;;;;;0.50;0.30;;;17.30;99.90;;;;;;4957141;28;20428;-69
2021/10/03 00:24:05;;;;;;;0.50;0.30;;;17.40;99.90;;;;;;4956929;28;20621;-66
2021/10/03 00:26:31;;;;;;;0.40;0.20;;;17.50;99.90;;;;;;4956994;28;20424;-67
2021/10/03 00:28:56;;;;;;;0.87;0.50;;;17.60;99.90;;;;;;4957197;28;20211;-66
2021/10/03 00:31:22;;;;;;;3.30;1.77;;;17.70;99.90;;;;;;4956040;28;20461;-66
2021/10/03 00:33:47;;;;;;;0.77;0.53;;;17.80;99.90;;;;;;4958390;28;20528;-66
2021/10/03 00:36:13;;;;;;;1.70;0.97;;;17.90;1.00;;;;;;4956448;28;20203;-66
2021/10/03 00:38:39;;;;;;;1.67;1.57;;;17.90;1.00;;;;;;4956382;28;20195;-66
2021/10/03 00:41:05;;;;;;;2.57;1.53;;;18.00;1.00;;;;;;4956466;28;20252;-67
2021/10/03 00:43:31;;;;;;;1.13;1.03;;;18.00;1.00;;;;;;4956319;28;20188;-67
2021/10/03 00:45:56;;;;;;;1.33;1.00;;;18.10;1.00;;;;;;4956370;28;20458;-67
2021/10/03 00:48:22;;;;;;;2.73;1.80;;;18.10;1.00;;;;;;4956080;28;20463;-66
2021/10/03 00:50:49;;;;;;;0.60;0.60;;;18.20;1.00;;;;;;4956406;28;20192;-68
2021/10/03 00:53:15;;;;;;;1.90;1.77;;;18.20;1.00;;;;;;4956325;28;20850;-67
2021/10/03 00:55:42;;;;;;;1.17;1.00;;;18.30;1.00;;;;;;4956057;28;20867;-68
2021/10/03 00:58:08;;;;;;;0.60;0.60;;;18.40;1.00;;;;;;4955295;28;20566;-67
2021/10/03 01:00:36;;;;;;;1.43;0.93;;;18.40;1.00;;;;;;4955997;28;20432;-68
2021/10/03 01:03:02;;;;;;;0.80;0.60;;;18.40;1.00;;;;;;4956052;28;20519;-67
2021/10/03 01:05:29;;;;;;;1.80;1.60;;;18.40;1.00;;;;;;4956184;28;20904;-67
2021/10/03 01:07:55;;;;;;;1.67;1.17;;;18.50;99.90;;;;;;4956336;28;20439;-68
2021/10/03 01:10:23;;;;;;;1.40;0.80;;;18.60;99.90;;;;;;4956095;28;20487;-67
2021/10/03 01:13:02;;;;;;;2.40;1.23;;;18.50;99.90;;;;;;4955905;28;20739;-68
2021/10/03 01:15:30;;;;;;;0.67;0.50;;;18.50;1.00;;;;;;4954835;28;20777;-67
2021/10/03 01:17:55;;;;;;;3.70;3.40;;;18.50;1.00;;;;;;4955100;29;20518;-67
2021/10/03 01:20:22;;;;;;;3.40;2.20;;;18.50;1.00;;;;;;4954481;28;20526;-67
2021/10/03 01:22:49;;;;;;;1.80;1.00;;;18.50;1.00;;;;;;4955114;29;20250;-67
2021/10/03 01:25:15;;;;;;;1.07;0.93;;;18.50;1.00;;;;;;4955048;28;20909;-67
2021/10/03 01:27:41;;;;;;;1.40;1.10;;;18.50;1.00;;;;;;4955339;28;20792;-67
2021/10/03 01:30:10;;;;;;;1.10;0.90;;;18.50;1.00;;;;;;4955163;28;20442;-68
2021/10/03 01:32:36;;;;;;;0.53;0.50;;;18.50;1.00;;;;;;4955291;28;20195;-68
2021/10/03 01:35:02;;;;;;;4.20;1.23;;;18.60;1.00;;;;;;4955147;29;20475;-68
2021/10/03 01:37:28;;;;;;;1.20;0.87;;;18.60;1.00;;;;;;4955050;28;20183;-68
2021/10/03 01:39:54;;;;;;;1.00;0.83;;;18.60;1.00;;;;;;4954848;28;20427;-68
2021/10/03 01:42:20;;;;;;;1.63;1.13;;;18.60;1.00;;;;;;4955083;29;20176;-68
2021/10/03 01:44:45;;;;;;;0.67;0.60;;;18.60;1.00;;;;;;4955267;28;20436;-68
2021/10/03 01:47:11;;;;;;;1.10;0.93;;;18.70;1.00;;;;;;4955244;28;20227;-68
2021/10/03 01:49:36;;;;;;;1.27;1.17;;;18.70;99.90;;;;;;4954928;28;20184;-68
2021/10/03 01:52:03;;;;;;;1.43;1.33;;;18.70;99.90;;;;;;4954537;28;20245;-68
2021/10/03 01:54:28;;;;;;;1.60;1.50;;;18.70;1.00;;;;;;4953345;28;20220;-68
2021/10/03 01:56:54;;;;;;;1.83;1.60;;;18.60;1.00;;;;;;4954447;28;20447;-66
2021/10/03 01:59:20;;;;;;;1.50;1.00;;;18.70;1.00;;;;;;4954891;28;20238;-66
2021/10/03 02:01:47;;;;;;;1.20;1.00;;;18.70;1.00;;;;;;4954394;28;20665;-66
2021/10/03 02:04:18;;;;;;;1.13;1.03;;;18.80;1.00;;;;;;4954389;28;20196;-66
2021/10/03 02:06:50;;;;;;;0.43;0.30;;;18.80;1.00;;;;;;4955357;28;20432;-68
2021/10/03 02:09:18;;;;;;;0.50;0.27;;;18.90;1.00;;;;;;4958737;28;20442;-67
2021/10/03 02:11:48;;;;;;;1.27;1.03;;;18.90;1.00;;;;;;4961146;28;20652;-67
2021/10/03 02:14:14;;;;;;;1.63;1.03;;;18.90;1.00;;;;;;4958554;28;20522;-67
2021/10/03 02:16:40;;;;;;;1.50;0.70;;;19.00;1.00;;;;;;4958553;29;20789;-69
2021/10/03 02:19:06;;;;;;;3.70;0.80;;;18.90;27.60;;;;;;4958458;28;20941;-69
2021/10/03 02:21:33;;;;;;;1.20;0.80;;;18.90;13.90;;;;;;4957245;28;20191;-69
2021/10/03 02:23:59;;;;;;;1.07;0.67;;;18.90;1.00;;;;;;4957512;28;20510;-69
2021/10/03 02:26:24;;;;;;;0.77;0.40;;;18.80;1.00;;;;;;4956127;29;20444;-69
2021/10/03 02:28:50;;;;;;;0.80;0.73;;;18.90;1.00;;;;;;4957619;29;20442;-69
2021/10/03 02:31:16;;;;;;;1.50;1.37;;;18.90;1.00;;;;;;4958885;29;20423;-69
2021/10/03 02:33:48;;;;;;;0.50;0.30;;;18.90;1.00;;;;;;4958836;29;20485;-69
2021/10/03 02:36:16;;;;;;;0.47;0.23;;;18.90;1.00;;;;;;4958731;28;20204;-69
2021/10/03 02:38:44;;;;;;;0.80;0.70;;;19.00;1.00;;;;;;4958391;29;20771;-69
2021/10/03 02:41:11;;;;;;;1.53;0.57;;;19.10;1.00;;;;;;4958785;28;20455;-68
2021/10/03 02:43:39;;;;;;;1.13;1.03;;;19.10;1.00;;;;;;4957515;28;20423;-69
2021/10/03 02:46:06;;;;;;;1.03;0.93;;;19.10;1.00;;;;;;4958572;29;20439;-69
2021/10/03 02:48:36;;;;;;;1.07;0.67;;;19.10;99.90;;;;;;4958208;28;20860;-68
2021/10/03 02:51:02;;;;;;;1.33;1.23;;;19.10;99.90;;;;;;4958467;29;20454;-68
2021/10/03 02:53:28;;;;;;;0.93;0.83;;;19.20;99.90;;;;;;4958469;28;20439;-69
2021/10/03 02:55:54;;;;;;;0.60;0.30;;;19.30;99.90;;;;;;4958337;28;20475;-69
2021/10/03 02:58:21;;;;;;;1.57;1.23;;;19.20;99.90;;;;;;4958114;28;20180;-69
2021/10/03 03:00:51;;;;;;;2.20;1.27;;;19.20;99.90;;;;;;4958589;29;20913;-69
2021/10/03 03:03:16;;;;;;;0.70;0.70;;;19.20;99.90;;;;;;4958389;29;20891;-69
2021/10/03 03:05:42;;;;;;;2.20;0.87;;;19.20;1.00;;;;;;4958272;28;20468;-69
2021/10/03 03:08:07;;;;;;;0.40;0.13;;;19.20;1.00;;;;;;4957912;28;20231;-69
2021/10/03 03:10:33;;;;;;;1.43;0.77;;;19.20;52.50;;;;;;4958268;29;20533;-69
2021/10/03 03:12:59;;;;;;;1.50;1.40;;;19.10;99.90;;;;;;4958016;28;20188;-69
2021/10/03 03:15:25;;;;;;;0.50;0.40;;;19.10;99.90;;;;;;4958083;29;20618;-70
2021/10/03 03:17:51;;;;;;;3.67;1.03;;;19.10;99.90;;;;;;4956965;29;20523;-69
2021/10/03 03:20:17;;;;;;;0.40;0.20;;;19.10;99.90;;;;;;4957561;28;21021;-69
2021/10/03 03:22:43;;;;;;;1.50;1.37;;;19.00;99.90;;;;;;4957945;28;20184;-69
2021/10/03 03:25:12;;;;;;;2.40;1.67;;;19.00;99.90;;;;;;4956936;29;20474;-69
2021/10/03 03:27:37;;;;;;;0.97;0.63;;;18.90;1.00;;;;;;4957711;29;20790;-67
2021/10/03 03:30:05;;;;;;;0.90;0.60;;;18.90;1.00;;;;;;4957634;29;20428;-67
2021/10/03 03:32:30;;;;;;;1.47;1.37;;;18.90;1.00;;;;;;4957638;28;20780;-67
2021/10/03 03:34:56;;;;;;;4.00;0.77;;;18.80;1.00;;;;;;4957606;29;20574;-67
2021/10/03 03:37:22;;;;;;;0.67;0.37;;;18.70;1.00;;;;;;4957522;28;20180;-67
2021/10/03 03:39:47;;;;;;;2.93;0.97;;;18.70;1.00;;;;;;4957478;29;20620;-69
2021/10/03 03:42:13;;;;;;;1.17;1.03;;;18.70;1.00;;;;;;4957777;29;20180;-69
2021/10/03 03:44:38;;;;;;;0.70;0.50;;;18.70;1.00;;;;;;4957442;28;20263;-67
2021/10/03 03:47:04;;;;;;;4.30;2.60;;;18.80;1.00;;;;;;4957855;29;20279;-68
2021/10/03 03:49:32;;;;;;;0.60;0.40;;;18.70;1.00;;;;;;4958018;28;20665;-68
2021/10/03 03:51:58;;;;;;;0.50;0.30;;;18.60;1.00;;;;;;4958016;29;20657;-68
2021/10/03 03:54:24;;;;;;;0.50;0.30;;;18.60;1.00;;;;;;4957805;28;20463;-67
2021/10/03 03:56:49;;;;;;;0.40;0.20;;;18.60;1.00;;;;;;4957534;28;20188;-68
2021/10/03 03:59:15;;;;;;;1.13;0.80;;;18.60;1.00;;;;;;4957329;28;20878;-68
2021/10/03 04:01:41;;;;;;;0.40;0.30;;;18.50;1.00;;;;;;4939445;29;20669;-66
2021/10/03 04:04:07;;;;;;;2.00;1.53;;;18.60;1.00;;;;;;4957220;28;20881;-69
2021/10/03 04:06:32;;;;;;;0.90;0.77;;;18.50;1.00;;;;;;4957037;29;20432;-68
2021/10/03 04:08:58;;;;;;;0.60;0.40;;;18.40;1.00;;;;;;4956963;28;20629;-69
2021/10/03 04:11:24;;;;;;;2.00;1.10;;;18.40;1.00;;;;;;4957189;29;20180;-69
2021/10/03 04:13:49;;;;;;;0.93;0.30;;;18.40;1.00;;;;;;4956034;29;20234;-69
2021/10/03 04:16:15;;;;;;;0.93;0.50;;;18.40;1.00;;;;;;4956983;28;20586;-69
2021/10/03 04:18:41;;;;;;;1.90;0.60;;;18.40;1.00;;;;;;4956691;29;20215;-70
2021/10/03 04:21:06;;;;;;;0.40;0.23;;;18.40;1.00;;;;;;4956877;29;20267;-69
2021/10/03 04:23:32;;;;;;;1.13;0.63;;;18.40;1.00;;;;;;4956927;28;20760;-69
2021/10/03 04:25:57;;;;;;;0.50;0.40;;;18.40;1.00;;;;;;4956743;29;20199;-69
2021/10/03 04:28:25;;;;;;;1.83;1.13;;;18.40;1.00;;;;;;4956438;28;20207;-69
2021/10/03 04:30:52;;;;;;;0.90;0.67;;;18.40;1.00;;;;;;4956803;28;20351;-69
2021/10/03 04:33:17;;;;;;;0.40;0.20;;;18.40;1.00;;;;;;4956037;28;20569;-69
2021/10/03 04:35:43;;;;;;;1.27;0.60;;;18.40;1.00;;;;;;4956460;29;20504;-68
2021/10/03 04:38:08;;;;;;;0.80;0.70;;;18.40;1.00;;;;;;4955556;29;20192;-68
2021/10/03 04:40:34;;;;;;;1.13;1.03;;;18.40;1.00;;;;;;4956473;28;20217;-68
2021/10/03 04:42:59;;;;;;;0.93;0.87;;;18.40;1.00;;;;;;4956336;28;20183;-68
2021/10/03 04:45:25;;;;;;;1.10;1.00;;;18.50;1.00;;;;;;4956504;29;20193;-68
2021/10/03 04:47:50;;;;;;;2.20;1.17;;;18.50;1.00;;;;;;4956268;29;20239;-68
2021/10/03 04:50:16;;;;;;;0.80;0.57;;;18.50;1.00;;;;;;4956207;29;20633;-68
2021/10/03 04:52:43;;;;;;;1.27;0.87;;;18.40;1.00;;;;;;4956163;28;20242;-68
2021/10/03 04:55:10;;;;;;;1.63;0.63;;;18.40;1.00;;;;;;4956167;28;20307;-68
2021/10/03 04:57:36;;;;;;;0.80;0.70;;;18.40;1.00;;;;;;4956297;28;20826;-68
2021/10/03 05:00:07;;;;;;;0.70;0.70;;;18.40;1.00;;;;;;4956642;29;20739;-68
2021/10/03 05:02:33;;;;;;;1.40;1.30;;;18.40;1.00;;;;;;4955628;29;20446;-68
2021/10/03 05:04:59;;;;;;;0.83;0.67;;;18.40;1.00;;;;;;4956146;29;20432;-68
2021/10/03 05:07:24;;;;;;;3.47;1.50;;;18.40;1.00;;;;;;4956164;28;20192;-68
2021/10/03 05:09:50;;;;;;;0.40;0.30;;;18.40;1.00;;;;;;4956041;29;20446;-69
2021/10/03 05:12:16;;;;;;;1.27;0.30;;;18.40;1.00;;;;;;4956160;28;20191;-70
2021/10/03 05:14:41;;;;;;;1.00;0.73;;;18.50;1.00;;;;;;4956715;28;20215;-68
2021/10/03 05:17:07;;;;;;;1.23;1.03;;;18.40;1.00;;;;;;4956070;28;20444;-66
2021/10/03 05:19:33;;;;;;;0.40;0.23;;;18.40;1.00;;;;;;4955736;28;20254;-66
2021/10/03 05:21:59;;;;;;;1.70;1.60;;;18.40;1.00;;;;;;4954907;29;20188;-67
2021/10/03 05:24:25;;;;;;;1.20;0.80;;;18.40;1.00;;;;;;4955930;28;20192;-66
2021/10/03 05:26:50;;;;;;;0.80;0.60;;;18.40;1.00;;;;;;4955589;28;20551;-66
2021/10/03 05:29:16;;;;;;;0.40;0.20;;;18.40;1.00;;;;;;4955804;28;20495;-66
2021/10/03 05:31:42;;;;;;;2.10;0.97;;;18.50;1.00;;;;;;4956362;28;20203;-66
2021/10/03 05:34:08;;;;;;;1.63;1.43;;;18.40;1.00;;;;;;4955472;28;20515;-66
2021/10/03 05:36:33;;;;;;;0.70;0.53;;;18.50;1.00;;;;;;4955598;29;20184;-66
2021/10/03 05:39:00;;;;;;;2.73;0.50;;;18.50;1.00;;;;;;4955375;28;20185;-66
2021/10/03 05:41:27;;;;;;;1.00;0.60;;;18.50;1.00;;;;;;4955628;29;20176;-66
2021/10/03 05:43:53;;;;;;;0.50;0.40;;;18.50;1.00;;;;;;4954589;28;20439;-66
2021/10/03 05:46:18;;;;;;;1.77;1.63;;;18.50;1.00;;;;;;4956053;29;20783;-66
2021/10/03 05:48:44;;;;;;;2.00;0.43;;;18.60;1.00;;;;;;4955147;28;20961;-66
2021/10/03 05:51:10;;;;;;;0.60;0.30;;;18.50;1.00;;;;;;4954460;28;20195;-67
2021/10/03 05:53:35;;;;;;;1.03;0.90;;;18.60;1.00;;;;;;4955106;28;20545;-65
2021/10/03 05:56:02;;;;;;;0.90;0.50;;;18.50;1.00;;;;;;4956179;29;20475;-66
2021/10/03 05:58:28;;;;;;;1.90;1.27;;;18.60;1.00;;;;;;4955567;29;20215;-69
2021/10/03 06:00:53;;;;;;;0.50;0.30;;;18.60;99.90;;;;;;4955871;29;20443;-67
2021/10/03 06:03:19;;;;;;;0.40;0.20;;;18.60;99.90;;;;;;4955613;28;20601;-67
2021/10/03 06:05:45;;;;;;;1.83;1.07;;;18.60;99.90;;;;;;4955558;28;20184;-66
2021/10/03 06:08:10;;;;;;;1.00;1.00;;;18.60;99.90;;;;;;4954649;29;20618;-67
2021/10/03 06:10:37;;;;;;;0.90;0.60;;;18.70;99.90;;;;;;4954704;28;20196;-67
2021/10/03 06:13:04;;;;;;;2.50;1.57;;;18.70;99.90;;;;;;4955312;28;20263;-66
2021/10/03 06:15:31;;;;;;;0.80;0.70;;;18.70;99.90;;;;;;4955366;28;20538;-66
2021/10/03 06:17:57;;;;;;;0.40;0.20;;;18.80;99.90;;;;;;4955641;28;20458;-66
2021/10/03 06:20:22;;;;;;;1.10;0.77;;;18.70;99.90;;;;;;4955572;28;20436;-65
2021/10/03 06:22:48;;;;;;;0.63;0.50;;;18.70;99.90;;;;;;4955761;28;20199;-65
2021/10/03 06:25:14;;;;;;;6.60;4.50;;;18.70;99.90;;;;;;4955141;28;20370;-65
2021/10/03 06:27:40;;;;;;;0.60;0.40;;;18.70;99.90;;;;;;4955593;28;20204;-68
2021/10/03 06:30:06;;;;;;;0.97;0.80;;;18.80;99.90;;;;;;4955446;28;20582;-67
2021/10/03 06:32:32;;;;;;;0.50;0.40;;;18.90;99.90;;;;;;4954952;28;20440;-65
2021/10/03 06:34:57;;;;;;;0.70;0.50;;;18.90;99.90;;;;;;4955209;28;20483;-65
2021/10/03 06:37:23;;;;;;;0.50;0.40;;;18.90;99.90;;;;;;4955085;28;20180;-65
2021/10/03 06:39:49;;;;;;;2.50;2.30;;;19.00;99.90;;;;;;4954109;28;20192;-65
2021/10/03 06:42:14;;;;;;;2.93;1.23;;;19.10;99.90;;;;;;4955161;28;20184;-66
2021/10/03 06:44:40;;;;;;;1.57;1.47;;;19.10;99.90;;;;;;4954998;28;20268;-66
2021/10/03 06:47:08;;;;;;;1.03;0.67;;;19.10;99.90;;;;;;4954906;28;20271;-65
2021/10/03 06:49:35;;;;;;;1.40;1.00;;;19.20;99.90;;;;;;4954866;28;20424;-65
2021/10/03 06:52:01;;;;;;;0.50;0.30;;;19.20;25.80;;;;;;4954843;28;20474;-66
2021/10/03 06:54:27;;;;;;;1.80;1.70;;;19.20;99.90;;;;;;4954494;28;20862;-65
2021/10/03 06:56:52;;;;;;;0.90;0.73;;;19.30;44.50;;;;;;4958250;28;20184;-66
2021/10/03 06:59:18;;;;;;;0.70;0.60;;;19.40;27.00;;;;;;4957502;28;20177;-66
2021/10/03 07:01:44;;;;;;;1.47;1.37;;;19.50;1.00;;;;;;4958310;28;20368;-66
2021/10/03 07:04:09;;;;;;;1.70;1.07;;;19.40;1.00;;;;;;4957935;28;20184;-68
2021/10/03 07:06:35;;;;;;;0.47;0.30;;;19.60;1.00;;;;;;4957605;28;20215;-67
2021/10/03 07:09:01;;;;;;;1.43;1.00;;;19.60;1.00;;;;;;4958957;28;20613;-69
2021/10/03 07:11:29;;;;;;;3.20;2.00;;;19.60;1.00;;;;;;4958520;28;20262;-66
2021/10/03 07:13:57;;;;;;;0.50;0.30;;;19.60;1.00;;;;;;4958284;28;20188;-67
2021/10/03 07:16:22;;;;;;;1.80;1.47;;;19.70;1.00;;;;;;4957775;28;20922;-68
2021/10/03 07:18:48;;;;;;;1.77;1.13;;;19.80;1.00;;;;;;4957218;28;20587;-66
2021/10/03 07:21:14;;;;;;;1.13;0.80;;;19.70;1.00;;;;;;4957542;29;20308;-66
2021/10/03 07:23:40;;;;;;;0.80;0.77;;;19.80;1.00;;;;;;4964332;28;20455;-67
2021/10/03 07:26:07;;;;;;;1.40;0.93;;;19.70;1.00;;;;;;4961774;28;20237;-67
2021/10/03 07:28:33;;;;;;;0.93;0.50;;;19.80;1.00;;;;;;4961013;28;20465;-66
2021/10/03 07:30:59;;;;;;;2.13;0.80;;;19.80;1.00;;;;;;4957748;28;20582;-66
2021/10/03 07:33:24;;;;;;;1.20;0.83;;;19.90;99.90;;;;;;4957870;28;20531;-66
2021/10/03 07:35:50;;;;;;;1.03;0.77;;;20.00;99.90;;;;;;4957669;28;20235;-67
2021/10/03 07:38:16;;;;;;;0.50;0.30;;;20.00;99.90;;;;;;4957147;28;20586;-68
2021/10/03 07:40:43;;;;;;;0.50;0.40;;;20.00;99.90;;;;;;4957687;28;20188;-69
2021/10/03 07:43:09;;;;;;;0.40;0.20;;;20.00;99.90;;;;;;4957723;28;20172;-68
2021/10/03 07:45:35;;;;;;;1.97;1.77;;;20.10;99.90;;;;;;4957182;28;20467;-67
2021/10/03 07:48:04;;;;;;;1.57;1.00;;;20.10;99.90;;;;;;4957562;28;20447;-69
2021/10/03 07:50:29;;;;;;;1.50;1.40;;;20.10;99.90;;;;;;4957562;28;20424;-69
2021/10/03 07:52:55;;;;;;;0.50;0.37;;;20.00;99.90;;;;;;4956653;29;20502;-70
2021/10/03 07:55:28;;;;;;;0.97;0.87;;;20.20;1.00;;;;;;4957710;28;20546;-69
2021/10/03 07:58:03;;;;;;;0.50;0.47;;;20.10;1.00;;;;;;4957673;28;20893;-67
2021/10/03 08:00:32;;;;;;;1.23;0.90;;;20.00;99.90;;;;;;4957446;29;20697;-69
2021/10/03 08:02:58;;;;;;;0.97;0.57;;;20.00;1.00;;;;;;4955686;28;20491;-69
2021/10/03 08:05:24;;;;;;;0.67;0.67;;;20.10;1.00;;;;;;4957144;28;20491;-69
2021/10/03 08:07:50;;;;;;;1.27;0.60;;;20.20;1.00;;;;;;4955733;28;20436;-67
2021/10/03 08:10:15;;;;;;;2.20;1.23;;;20.20;99.90;;;;;;4956716;28;20668;-69
2021/10/03 08:12:41;;;;;;;2.30;2.00;;;20.10;99.90;;;;;;4956951;29;20235;-68
2021/10/03 08:15:08;;;;;;;0.40;0.20;;;20.10;99.90;;;;;;4956482;28;20208;-68
2021/10/03 08:17:34;;;;;;;0.90;0.67;;;20.10;99.90;;;;;;4957075;28;20478;-67
2021/10/03 08:20:00;;;;;;;2.20;0.93;;;20.00;70.10;;;;;;4957509;28;20444;-69
2021/10/03 08:22:26;;;;;;;0.50;0.40;;;20.10;85.00;;;;;;4956783;28;20296;-67
2021/10/03 08:24:51;;;;;;;1.93;1.50;;;20.10;1.00;;;;;;4957068;28;20610;-67
2021/10/03 08:27:17;;;;;;;0.60;0.40;;;20.30;99.90;;;;;;4956922;28;20220;-67
2021/10/03 08:29:42;;;;;;;0.63;0.63;;;20.40;1.00;;;;;;4956865;28;20204;-68
2021/10/03 08:32:08;;;;;;;1.00;0.60;;;20.50;99.90;;;;;;4956596;28;20188;-69
2021/10/03 08:34:34;;;;;;;1.43;1.00;;;20.60;1.00;;;;;;4956334;28;20208;-68
2021/10/03 08:36:59;;;;;;;1.53;1.20;;;20.60;1.00;;;;;;4956556;28;20505;-69
2021/10/03 08:39:25;;;;;;;1.77;0.47;;;20.60;99.90;;;;;;4956219;28;20646;-69
2021/10/03 08:41:54;;;;;;;2.40;2.20;;;20.60;99.90;;;;;;4955275;28;20184;-67
2021/10/03 08:44:19;;;;;;;1.17;1.00;;;20.60;1.00;;;;;;4956093;28;20617;-68
2021/10/03 08:46:47;;;;;;;0.93;0.70;;;20.50;99.90;;;;;;4956080;28;20432;-69
2021/10/03 08:49:13;;;;;;;1.90;1.37;;;20.50;1.00;;;;;;4956070;28;20195;-68
2021/10/03 08:51:38;;;;;;;5.10;1.40;;;20.30;99.90;;;;;;4956008;28;20432;-69
2021/10/03 08:54:04;;;;;;;1.00;0.90;;;20.40;1.00;;;;;;4956352;28;20267;-68
2021/10/03 08:56:30;;;;;;;2.10;0.90;;;20.40;1.00;;;;;;4954981;28;20608;-69
2021/10/03 08:58:56;;;;;;;1.07;0.70;;;20.40;1.00;;;;;;4955941;28;20634;-67
2021/10/03 09:01:22;;;;;;;1.53;0.83;;;20.30;1.00;;;;;;4955925;28;20452;-67
2021/10/03 09:03:49;;;;;;;0.60;0.50;;;20.20;99.90;;;;;;4955893;28;20255;-67
2021/10/03 09:06:15;;;;;;;5.40;1.30;;;20.30;99.90;;;;;;4956419;28;20441;-69
2021/10/03 09:08:43;;;;;;;1.03;0.70;;;20.40;1.00;;;;;;4955980;28;20514;-69
2021/10/03 09:11:17;;;;;;;1.50;0.93;;;20.50;1.00;;;;;;4956077;28;20502;-67
2021/10/03 09:13:52;;;;;;;1.00;0.80;;;20.60;39.40;;;;;;4956273;28;20847;-67
2021/10/03 09:16:18;;;;;;;0.70;0.63;;;20.50;1.00;;;;;;4955646;28;20471;-67
2021/10/03 09:18:49;;;;;;;0.67;0.50;;;20.60;99.90;;;;;;4955251;28;20960;-70
2021/10/03 09:21:39;;;;;;;1.60;1.50;;;20.70;1.00;;;;;;4955599;28;20207;-68
2021/10/03 09:24:10;;;;;;;0.77;0.27;;;20.60;99.90;;;;;;4955597;29;20746;-66
2021/10/03 09:26:37;;;;;;;0.50;0.40;;;20.60;99.90;;;;;;4955436;28;20446;-68
2021/10/03 09:29:22;;;;;;;2.40;2.17;;;20.40;99.90;;;;;;4955272;28;20429;-68
2021/10/03 09:32:12;;;;;;;1.10;0.67;;;20.30;99.90;;;;;;4955012;28;20686;-68
2021/10/03 09:34:46;;;;;;;2.13;1.60;;;20.20;99.90;;;;;;4955375;28;20533;-68
2021/10/03 09:37:29;;;;;;;1.13;0.60;;;20.20;99.90;;;;;;4955180;28;20493;-69
2021/10/03 09:40:16;;;;;;;1.83;1.27;;;20.30;1.00;;;;;;4955651;29;20486;-69
2021/10/03 09:42:54;;;;;;;0.50;0.30;;;20.30;99.90;;;;;;4955795;28;20518;-68
2021/10/03 09:45:22;;;;;;;0.80;0.47;;;20.40;26.50;;;;;;4955830;28;20762;-69
2021/10/03 09:48:04;;;;;;;3.53;1.70;;;20.40;1.00;;;;;;4955584;28;20486;-69
2021/10/03 09:50:36;;;;;;;1.00;0.87;;;20.30;1.00;;;;;;4938053;28;20456;-69
2021/10/03 09:53:02;;;;;;;1.33;0.77;;;20.30;1.00;;;;;;4936734;29;20429;-67
2021/10/03 09:55:28;;;;;;;0.40;0.20;;;20.40;99.90;;;;;;4937839;29;20472;-67
2021/10/03 09:57:55;;;;;;;0.80;0.40;;;20.50;1.00;;;;;;4954602;29;20431;-67
2021/10/03 10:00:23;;;;;;;0.60;0.40;;;20.60;1.00;;;;;;4954988;28;20434;-67
2021/10/03 10:02:50;;;;;;;0.70;0.70;;;20.60;1.00;;;;;;4954597;28;20460;-67
2021/10/03 10:05:20;;;;;;;0.90;0.73;;;20.70;99.90;;;;;;4953931;29;20436;-67
2021/10/03 10:07:47;;;;;;;2.20;0.83;;;20.70;1.00;;;;;;4954902;28;20446;-66
2021/10/03 10:10:14;;;;;;;0.50;0.30;;;20.80;99.90;;;;;;4952143;29;20461;-68
2021/10/03 10:12:55;;;;;;;0.40;0.20;;;20.70;1.00;;;;;;4954175;28;21033;-68
2021/10/03 10:15:22;;;;;;;1.07;0.80;;;20.70;1.00;;;;;;4961210;28;20467;-67
2021/10/03 10:17:48;;;;;;;0.70;0.60;;;20.70;1.00;;;;;;4961156;28;20477;-68
2021/10/03 10:20:17;;;;;;;0.70;0.70;;;20.70;99.90;;;;;;4944272;29;20463;-68
2021/10/03 10:22:57;;;;;;;0.80;0.70;;;20.80;1.00;;;;;;4944833;29;20424;-68
2021/10/03 10:25:49;;;;;;;1.07;0.63;;;20.90;1.00;;;;;;4954929;28;20427;-68
2021/10/03 10:28:26;;;;;;;0.80;0.60;;;21.10;99.90;;;;;;4953311;29;20530;-68
2021/10/03 10:31:06;;;;;;;4.50;1.13;;;21.20;99.90;;;;;;4958397;28;20877;-68
2021/10/03 10:33:50;;;;;;;1.33;0.93;;;21.00;1.00;;;;;;4960534;29;20527;-68
2021/10/03 10:36:21;;;;;;;1.03;0.87;;;21.00;99.90;;;;;;4957146;28;20479;-68
2021/10/03 10:39:09;;;;;;;1.47;1.37;;;21.10;99.90;;;;;;4959121;28;20911;-67
2021/10/03 10:41:34;;;;;;;1.90;1.70;;;21.20;55.80;;;;;;4958683;28;20968;-66
2021/10/03 10:44:00;;;;;;;1.90;1.80;;;21.20;99.90;;;;;;4958643;28;20514;-67
2021/10/03 10:46:47;;;;;;;0.50;0.30;;;21.30;1.00;;;;;;4958307;28;20262;-66
2021/10/03 10:49:26;;;;;;;0.50;0.23;;;21.20;1.00;;;;;;4939220;29;20216;-66
2021/10/03 10:52:19;;;;;;;1.27;1.17;;;21.40;99.90;;;;;;4939270;29;21073;-69
2021/10/03 10:55:09;;;;;;;0.77;0.63;;;21.50;98.00;;;;;;4939465;29;20484;-67
2021/10/03 10:57:48;;;;;;;0.50;0.30;;;21.40;99.90;;;;;;4957655;28;20452;-69
2021/10/03 11:00:24;;;;;;;1.20;1.10;;;21.40;95.20;;;;;;4958306;28;20772;-68
2021/10/03 11:02:54;;;;;;;1.13;0.93;;;21.30;84.90;;;;;;4958343;28;20501;-68
2021/10/03 11:05:34;;;;;;;0.60;0.40;;;21.40;99.90;;;;;;4958452;28;20443;-68
2021/10/03 11:08:07;;;;;;;1.57;0.70;;;21.40;99.50;;;;;;4957533;28;20457;-68
2021/10/03 11:11:01;;;;;;;0.40;0.20;;;21.40;1.00;;;;;;4957785;28;20517;-68
2021/10/03 11:13:46;;;;;;;0.60;0.40;;;21.40;1.00;;;;;;4955168;29;20440;-68
2021/10/03 11:16:25;;;;;;;2.83;1.07;;;21.40;1.00;;;;;;4957014;29;20471;-67
2021/10/03 11:19:14;;;;;;;0.40;0.10;;;21.40;99.90;;;;;;4955576;28;20498;-68
2021/10/03 11:21:48;;;;;;;2.50;2.10;;;21.50;99.90;;;;;;4955374;29;20436;-68
2021/10/03 11:24:26;;;;;;;3.00;1.70;;;21.40;1.00;;;;;;4958204;28;20431;-67
2021/10/03 11:26:57;;;;;;;1.37;0.50;;;21.30;1.00;;;;;;4957396;28;20768;-67
2021/10/03 11:29:25;;;;;;;0.57;0.40;;;21.40;1.00;;;;;;4955740;29;20507;-67
2021/10/03 11:32:05;;;;;;;0.90;0.50;;;21.50;1.00;;;;;;4957284;28;20865;-67
2021/10/03 11:34:39;;;;;;;0.50;0.20;;;21.40;1.00;;;;;;4953675;28;20491;-67
2021/10/03 11:37:06;;;;;;;0.40;0.10;;;21.40;1.00;;;;;;4957550;28;20558;-70
2021/10/03 11:40:07;;;;;;;1.00;0.80;;;21.60;1.00;;;;;;4954796;29;20515;-67
2021/10/03 11:42:54;;;;;;;0.40;0.20;;;21.60;1.00;;;;;;4955056;29;20486;-68
2021/10/03 11:45:24;;;;;;;0.40;0.20;;;21.80;1.00;;;;;;4955933;29;20447;-68
2021/10/03 11:47:54;;;;;;;0.60;0.37;;;21.80;1.00;;;;;;4954426;29;20511;-69
2021/10/03 11:50:26;;;;;;;0.50;0.40;;;21.70;1.00;;;;;;4957173;28;20452;-67
2021/10/03 11:52:55;;;;;;;1.37;0.93;;;21.60;1.00;;;;;;4957348;28;20461;-68
2021/10/03 11:55:32;;;;;;;2.00;1.80;;;21.40;91.70;;;;;;4956921;28;20534;-69
2021/10/03 11:58:04;;;;;;;1.23;0.83;;;21.50;99.90;;;;;;4956960;29;20439;-68
2021/10/03 12:00:30;;;;;;;0.60;0.50;;;21.70;1.00;;;;;;4955784;29;20462;-68
2021/10/03 12:03:04;;;;;;;0.80;0.50;;;21.80;1.00;;;;;;4956951;29;20490;-68
2021/10/03 12:05:32;;;;;;;0.87;0.60;;;21.80;1.00;;;;;;4954918;29;20184;-69
2021/10/03 12:08:12;;;;;;;2.03;1.53;;;21.70;1.00;;;;;;4957227;29;20436;-68
2021/10/03 12:10:53;;;;;;;1.40;1.30;;;21.70;99.90;;;;;;4955760;29;20443;-68
2021/10/03 12:13:23;;;;;;;1.43;1.07;;;21.80;1.00;;;;;;4956187;29;20420;-68
2021/10/03 12:15:54;;;;;;;0.50;0.33;;;21.70;99.90;;;;;;4954675;29;20464;-67
2021/10/03 12:18:29;;;;;;;0.50;0.40;;;21.80;99.90;;;;;;4955833;29;20436;-67
2021/10/03 12:21:18;;;;;;;0.40;0.20;;;21.80;1.00;;;;;;4955899;29;20459;-69
2021/10/03 12:24:00;;;;;;;2.80;1.67;;;21.90;90.60;;;;;;4955931;29;20505;-69
2021/10/03 12:26:25;;;;;;;2.17;1.37;;;21.70;1.00;;;;;;4954195;29;20431;-69
2021/10/03 12:29:02;;;;;;;1.17;0.60;;;21.50;97.80;;;;;;4956458;28;20498;-69
2021/10/03 12:31:39;;;;;;;0.80;0.40;;;21.60;1.00;;;;;;4954129;29;20184;-68
2021/10/03 12:34:13;;;;;;;0.90;0.30;;;21.70;1.00;;;;;;4953600;29;20431;-69
2021/10/03 12:36:58;;;;;;;1.53;1.43;;;21.70;1.00;;;;;;4956037;28;20526;-67
2021/10/03 12:39:25;;;;;;;0.60;0.57;;;21.80;1.00;;;;;;4956129;28;20515;-69
2021/10/03 12:41:53;;;;;;;0.40;0.20;;;21.70;99.90;;;;;;4956356;28;20483;-68
2021/10/03 12:44:27;;;;;;;0.83;0.30;;;21.70;1.00;;;;;;4954965;29;20436;-68
2021/10/03 12:46:54;;;;;;;0.80;0.53;;;21.60;1.00;;;;;;4955210;29;20580;-67
2021/10/03 12:49:29;;;;;;;2.73;0.77;;;21.70;99.90;;;;;;4955812;28;20450;-67
2021/10/03 12:51:58;;;;;;;0.87;0.50;;;21.80;99.90;;;;;;4955665;28;20435;-70
2021/10/03 12:54:24;;;;;;;1.00;0.90;;;21.90;99.90;;;;;;4956153;28;20431;-68
2021/10/03 12:56:50;;;;;;;0.40;0.20;;;21.80;99.90;;;;;;4956847;28;20446;-68
2021/10/03 12:59:15;;;;;;;1.37;1.27;;;21.90;99.90;;;;;;4956280;29;20180;-70
2021/10/03 13:01:46;;;;;;;0.50;0.40;;;21.90;99.90;;;;;;4956352;28;20172;-69